Time;durP1;ratioP1;P1;durP2;ratioP2;P2;SDS_P1;SDS_P2;PMS_P1;PMS_P2;Temp;Humidity;BMP_temperature;BMP_pressure;BME280_temperature;BME280_humidity;BME280_pressure;Samples;Min_cycle;Max_cycle;Signal;HPM_P1;HPM_P2
2021/11/19 00:01:41;;;;;;;24.60;22.48;;;20.30;99.90;;;;;;5074561;28;20032;-79
2021/11/19 00:04:09;;;;;;;25.55;23.33;;;20.40;99.90;;;;;;5073519;28;20025;-78
2021/11/19 00:06:38;;;;;;;23.65;21.80;;;20.50;99.90;;;;;;5073535;28;20029;-78
2021/11/19 00:09:08;;;;;;;25.27;23.08;;;20.60;99.90;;;;;;5056976;28;20032;-79
2021/11/19 00:11:39;;;;;;;23.83;21.83;;;21.00;99.90;;;;;;5073313;28;20059;-83
2021/11/19 00:14:07;;;;;;;24.88;22.83;;;20.90;99.90;;;;;;5074902;28;20033;-79
2021/11/19 00:16:36;;;;;;;23.13;21.23;;;21.40;99.90;;;;;;5075052;28;20024;-81
2021/11/19 00:19:05;;;;;;;22.30;20.50;;;21.50;99.90;;;;;;5073558;28;20052;-83
2021/11/19 00:21:35;;;;;;;22.67;20.52;;;21.70;99.90;;;;;;5075116;28;20029;-83
2021/11/19 00:24:03;;;;;;;21.30;19.70;;;21.90;99.90;;;;;;5079973;28;20017;-83
2021/11/19 00:26:32;;;;;;;19.90;18.33;;;22.10;99.90;;;;;;5077255;28;20496;-84
2021/11/19 00:29:01;;;;;;;20.20;18.35;;;22.30;99.90;;;;;;5084726;28;20024;-84
2021/11/19 00:31:29;;;;;;;19.10;17.60;;;22.50;99.90;;;;;;5086523;28;20025;-84
2021/11/19 00:33:56;;;;;;;16.67;15.27;;;22.60;99.90;;;;;;5087806;28;20047;-83
2021/11/19 00:36:27;;;;;;;15.35;14.15;;;22.60;99.90;;;;;;5087141;28;20032;-84
2021/11/19 00:38:58;;;;;;;14.30;13.10;;;22.90;99.90;;;;;;5094698;28;20049;-84
2021/11/19 00:41:25;;;;;;;;;;;23.20;99.90;;;;;;5090982;28;20031;-83
2021/11/19 00:43:52;;;;;;;15.18;13.88;;;23.50;99.90;;;;;;5087671;28;19954;-83
2021/11/19 00:46:20;;;;;;;13.48;12.38;;;23.80;99.90;;;;;;5075042;28;20024;-81
2021/11/19 00:48:48;;;;;;;12.85;11.82;;;24.10;99.90;;;;;;5073991;28;20017;-81
2021/11/19 00:51:22;;;;;;;11.65;10.70;;;24.30;99.90;;;;;;5072746;28;20032;-79
2021/11/19 00:53:51;;;;;;;9.80;8.90;;;24.60;99.90;;;;;;5076373;28;20025;-79
2021/11/19 00:56:21;;;;;;;9.50;8.80;;;24.60;99.90;;;;;;5075522;28;20166;-79
2021/11/19 00:58:51;;;;;;;9.20;8.00;;;24.90;99.90;;;;;;5075735;28;20036;-80
2021/11/19 01:01:24;;;;;;;9.18;8.60;;;25.20;99.90;;;;;;5074063;28;20103;-79
2021/11/19 01:03:51;;;;;;;7.47;6.75;;;25.80;99.90;;;;;;5075387;28;20354;-77
2021/11/19 01:06:18;;;;;;;7.25;6.55;;;26.20;99.90;;;;;;5075928;28;20075;-81
2021/11/19 01:08:46;;;;;;;8.38;7.63;;;26.60;99.90;;;;;;5073608;28;20389;-77
2021/11/19 01:11:18;;;;;;;9.55;6.70;;;26.50;99.90;;;;;;5074605;28;20029;-76
2021/11/19 01:13:47;;;;;;;7.55;6.63;;;26.80;99.90;;;;;;5073935;28;20077;-76
2021/11/19 01:16:23;;;;;;;5.65;5.13;;;27.10;99.90;;;;;;5073477;28;20385;-76
2021/11/19 01:18:59;;;;;;;5.45;5.00;;;27.50;99.90;;;;;;5072357;28;20044;-75
2021/11/19 01:21:34;;;;;;;6.95;4.65;;;27.30;99.90;;;;;;5073270;28;20091;-75
2021/11/19 01:24:01;;;;;;;6.30;4.13;;;27.60;99.90;;;;;;5073345;28;20017;-76
2021/11/19 01:26:35;;;;;;;5.15;3.92;;;27.80;99.90;;;;;;5072620;28;20115;-76
2021/11/19 01:29:06;;;;;;;5.95;3.80;;;27.50;99.90;;;;;;5071926;28;20477;-77
2021/11/19 01:31:41;;;;;;;5.32;3.25;;;27.80;99.90;;;;;;5072947;28;20021;-76
2021/11/19 01:34:10;;;;;;;3.00;2.70;;;28.20;99.90;;;;;;5073801;28;20021;-76
2021/11/19 01:36:38;;;;;;;3.47;3.00;;;28.30;99.90;;;;;;5055263;28;20025;-77
2021/11/19 01:39:08;;;;;;;4.18;3.15;;;28.60;99.90;;;;;;5071888;28;20024;-77
2021/11/19 01:41:41;;;;;;;6.77;3.13;;;28.50;99.90;;;;;;5071714;28;20064;-76
2021/11/19 01:44:24;;;;;;;5.07;3.15;;;28.70;99.90;;;;;;5073664;28;20056;-74
2021/11/19 01:46:54;;;;;;;3.97;2.97;;;28.70;99.90;;;;;;5055673;28;20025;-76
2021/11/19 01:49:23;;;;;;;4.22;3.10;;;28.60;99.90;;;;;;5072627;28;20078;-75
2021/11/19 01:51:59;;;;;;;6.07;3.03;;;28.60;99.90;;;;;;5073745;28;20032;-76
2021/11/19 01:54:40;;;;;;;5.13;2.80;;;28.70;99.90;;;;;;5072496;28;20508;-76
2021/11/19 01:57:14;;;;;;;7.45;3.97;;;28.90;99.90;;;;;;5073141;28;20390;-77
2021/11/19 02:00:02;;;;;;;4.22;3.53;;;28.80;98.80;;;;;;5071831;28;20393;-75
2021/11/19 02:02:37;;;;;;;5.72;3.40;;;29.20;98.40;;;;;;5071449;28;20025;-77
2021/11/19 02:05:22;;;;;;;3.42;2.90;;;29.10;98.50;;;;;;5071691;28;20092;-77
2021/11/19 02:07:56;;;;;;;4.40;2.88;;;29.30;97.60;;;;;;5071420;28;20050;-77
2021/11/19 02:10:38;;;;;;;4.93;2.50;;;29.50;97.50;;;;;;5071361;28;20031;-76
2021/11/19 02:13:06;;;;;;;3.20;2.50;;;29.70;96.80;;;;;;5071362;28;20034;-76
2021/11/19 02:15:59;;;;;;;5.30;2.50;;;29.80;96.30;;;;;;5071189;28;20016;-77
2021/11/19 02:18:39;;;;;;;3.80;2.78;;;30.00;95.70;;;;;;5072684;28;20105;-76
2021/11/19 02:21:10;;;;;;;3.20;2.95;;;30.50;96.00;;;;;;5071751;28;20056;-77
2021/11/19 02:23:46;;;;;;;3.97;2.88;;;30.30;94.90;;;;;;5075258;28;20037;-77
2021/11/19 02:26:16;;;;;;;5.28;2.97;;;30.50;95.00;;;;;;5075194;28;20432;-76
2021/11/19 02:28:47;;;;;;;4.80;2.75;;;30.30;93.10;;;;;;5076397;28;20512;-76
2021/11/19 02:31:13;;;;;;;;;;;30.60;93.30;;;;;;5075192;28;20083;-76
2021/11/19 02:33:44;;;;;;;4.68;2.63;;;30.90;93.10;;;;;;5073853;28;20345;-77
2021/11/19 02:36:18;;;;;;;4.32;2.70;;;30.10;92.90;;;;;;5075316;28;20070;-77
2021/11/19 02:38:52;;;;;;;4.43;2.70;;;30.40;93.50;;;;;;5075566;28;20047;-76
2021/11/19 02:41:23;;;;;;;3.20;3.00;;;30.50;93.20;;;;;;5075469;28;20101;-77
2021/11/19 02:43:55;;;;;;;3.05;2.60;;;31.00;92.10;;;;;;5074209;28;20028;-76
2021/11/19 02:46:28;;;;;;;4.45;2.78;;;31.00;91.50;;;;;;5075345;28;20102;-76
2021/11/19 02:48:55;;;;;;;4.88;2.75;;;31.10;92.40;;;;;;5073956;28;20115;-76
2021/11/19 02:51:24;;;;;;;3.25;2.42;;;31.40;92.60;;;;;;5074967;28;20024;-75
2021/11/19 02:53:52;;;;;;;4.13;2.40;;;31.30;91.60;;;;;;5075386;28;20021;-75
2021/11/19 02:56:21;;;;;;;3.35;2.30;;;31.50;91.40;;;;;;5075905;28;20021;-75
2021/11/19 02:58:52;;;;;;;3.03;2.42;;;31.80;90.70;;;;;;5074596;28;20021;-79
2021/11/19 03:01:25;;;;;;;3.17;2.50;;;31.50;90.00;;;;;;5074553;28;20066;-78
2021/11/19 03:04:29;;;;;;;4.40;2.13;;;31.20;90.10;;;;;;5075977;28;20021;-79
2021/11/19 03:06:58;;;;;;;2.88;2.30;;;31.50;90.50;;;;;;5065167;28;20486;-79
2021/11/19 03:09:35;;;;;;;5.68;2.83;;;32.00;90.70;;;;;;5075878;28;20017;-81
2021/11/19 03:12:04;;;;;;;6.18;2.60;;;32.00;89.90;;;;;;5075623;28;20024;-76
2021/11/19 03:14:32;;;;;;;2.75;2.30;;;32.00;89.50;;;;;;5074393;28;20381;-78
2021/11/19 03:17:01;;;;;;;5.03;2.50;;;32.10;90.30;;;;;;5075541;28;20435;-79
2021/11/19 03:19:29;;;;;;;5.03;2.53;;;31.80;90.30;;;;;;5074064;28;20041;-76
2021/11/19 03:21:56;;;;;;;3.72;2.90;;;32.00;91.00;;;;;;5074187;28;20032;-77
2021/11/19 03:24:24;;;;;;;4.88;3.47;;;32.20;91.60;;;;;;5075496;28;20032;-78
2021/11/19 03:26:56;;;;;;;4.85;3.50;;;31.70;91.30;;;;;;5075390;28;20381;-81
2021/11/19 03:29:25;;;;;;;6.63;3.95;;;31.80;92.00;;;;;;5074055;28;20059;-78
2021/11/19 03:31:58;;;;;;;5.47;3.50;;;31.50;91.80;;;;;;5073916;28;20024;-78
2021/11/19 03:34:26;;;;;;;6.78;3.78;;;31.80;92.00;;;;;;5072848;28;20055;-77
2021/11/19 03:36:55;;;;;;;5.25;4.00;;;31.50;92.20;;;;;;5075218;28;20075;-78
2021/11/19 03:39:26;;;;;;;4.47;3.60;;;30.90;92.20;;;;;;5057461;28;20408;-79
2021/11/19 03:41:56;;;;;;;6.18;3.60;;;30.90;92.90;;;;;;5073843;28;20035;-78
2021/11/19 03:44:38;;;;;;;4.85;3.50;;;31.40;92.60;;;;;;5073822;28;20032;-78
2021/11/19 03:47:10;;;;;;;6.10;4.10;;;31.80;92.10;;;;;;5075097;28;20029;-79
2021/11/19 03:49:39;;;;;;;3.83;3.30;;;31.70;91.60;;;;;;5075109;28;20031;-78
2021/11/19 03:52:18;;;;;;;4.82;3.58;;;31.40;91.70;;;;;;5074875;28;20409;-79
2021/11/19 03:54:49;;;;;;;3.88;3.30;;;31.40;91.40;;;;;;5074984;28;20016;-78
2021/11/19 03:57:19;;;;;;;4.30;3.25;;;31.10;91.60;;;;;;5074899;28;20096;-78
2021/11/19 03:59:47;;;;;;;6.30;3.53;;;31.20;91.40;;;;;;5073481;28;20021;-78
2021/11/19 04:02:16;;;;;;;5.00;3.75;;;30.80;91.70;;;;;;5073418;28;20116;-77
2021/11/19 04:04:43;;;;;;;4.22;3.40;;;30.40;92.30;;;;;;5073237;28;20078;-79
2021/11/19 04:07:14;;;;;;;7.32;4.35;;;30.40;92.20;;;;;;5074694;28;20024;-78
2021/11/19 04:09:44;;;;;;;4.70;3.85;;;30.30;92.30;;;;;;5074751;28;20056;-79
2021/11/19 04:12:15;;;;;;;5.97;4.20;;;30.00;92.20;;;;;;5074433;28;20025;-78
2021/11/19 04:14:43;;;;;;;6.78;4.95;;;29.90;92.90;;;;;;5073176;28;20029;-78
2021/11/19 04:17:11;;;;;;;7.22;4.72;;;30.10;93.30;;;;;;5073106;28;20028;-80
2021/11/19 04:19:38;;;;;;;7.53;5.65;;;30.50;92.60;;;;;;5074336;28;20402;-79
2021/11/19 04:22:12;;;;;;;6.55;5.13;;;30.80;93.30;;;;;;5073011;28;20342;-81
2021/11/19 04:24:56;;;;;;;7.25;5.25;;;31.00;92.30;;;;;;5072757;28;20074;-80
2021/11/19 04:27:23;;;;;;;6.18;4.97;;;30.80;92.70;;;;;;5070549;28;20501;-78
2021/11/19 04:29:51;;;;;;;4.93;4.50;;;30.80;92.10;;;;;;5074235;28;20028;-79
2021/11/19 04:32:22;;;;;;;5.00;4.47;;;30.30;92.10;;;;;;5072853;28;20393;-79
2021/11/19 04:34:51;;;;;;;4.75;4.35;;;30.30;92.40;;;;;;5072842;28;20417;-79
2021/11/19 04:37:20;;;;;;;5.63;4.15;;;30.40;92.40;;;;;;5072800;28;20495;-79
2021/11/19 04:39:47;;;;;;;6.55;4.30;;;30.40;92.30;;;;;;5072790;28;20021;-79
2021/11/19 04:42:15;;;;;;;4.88;4.03;;;30.70;92.50;;;;;;5072680;28;20026;-78
2021/11/19 04:44:42;;;;;;;8.68;4.13;;;30.40;92.20;;;;;;5072219;28;20031;-79
2021/11/19 04:47:10;;;;;;;7.00;4.20;;;30.40;92.30;;;;;;5073796;28;20021;-78
2021/11/19 04:49:39;;;;;;;6.13;4.00;;;30.20;92.80;;;;;;5073848;28;20017;-78
2021/11/19 04:52:11;;;;;;;5.05;4.40;;;30.10;92.80;;;;;;5072360;28;20392;-78
2021/11/19 04:54:39;;;;;;;3.80;3.50;;;30.10;93.30;;;;;;5072494;28;20024;-78
2021/11/19 04:57:07;;;;;;;4.90;3.28;;;29.90;92.60;;;;;;5072632;28;20381;-77
2021/11/19 04:59:34;;;;;;;3.88;3.47;;;29.90;91.90;;;;;;5073649;28;20074;-78
2021/11/19 05:02:07;;;;;;;3.90;3.53;;;29.80;93.00;;;;;;5073619;28;20029;-80
2021/11/19 05:04:35;;;;;;;3.35;3.05;;;29.80;92.10;;;;;;5072130;28;20037;-78
2021/11/19 05:07:03;;;;;;;8.10;3.70;;;29.70;92.00;;;;;;5073568;28;20111;-79
2021/11/19 05:09:32;;;;;;;4.03;3.13;;;30.10;92.80;;;;;;5073562;28;20384;-78
2021/11/19 05:12:07;;;;;;;5.22;2.90;;;30.30;92.40;;;;;;5073296;28;20082;-78
2021/11/19 05:14:36;;;;;;;3.15;2.85;;;30.20;92.80;;;;;;5072114;28;20017;-79
2021/11/19 05:17:06;;;;;;;3.40;2.75;;;30.10;92.20;;;;;;5073383;28;20048;-78
2021/11/19 05:19:33;;;;;;;4.05;2.63;;;30.10;91.40;;;;;;5073128;28;20044;-78
2021/11/19 05:22:01;;;;;;;3.67;2.90;;;30.00;91.40;;;;;;5071881;28;20396;-78
2021/11/19 05:24:31;;;;;;;4.88;3.00;;;30.00;92.00;;;;;;5071898;28;20074;-79
2021/11/19 05:26:58;;;;;;;3.67;3.05;;;30.00;91.70;;;;;;5073142;28;20032;-78
2021/11/19 05:29:26;;;;;;;3.65;2.85;;;29.90;91.30;;;;;;5071857;28;20394;-78
2021/11/19 05:31:54;;;;;;;3.42;2.92;;;29.70;92.40;;;;;;5071802;28;20031;-79
2021/11/19 05:34:22;;;;;;;4.22;2.92;;;29.70;92.50;;;;;;5071738;28;20024;-78
2021/11/19 05:36:50;;;;;;;5.53;3.05;;;29.60;93.00;;;;;;5073086;28;20481;-79
2021/11/19 05:39:21;;;;;;;3.42;2.95;;;29.50;92.80;;;;;;5071829;28;20025;-79
2021/11/19 05:41:49;;;;;;;4.55;2.92;;;29.40;93.00;;;;;;5071727;28;20028;-78
2021/11/19 05:44:17;;;;;;;4.60;2.70;;;29.40;93.40;;;;;;5072915;28;20107;-78
2021/11/19 05:46:46;;;;;;;4.18;2.70;;;29.30;93.30;;;;;;5071533;28;20469;-78
2021/11/19 05:49:16;;;;;;;7.45;2.50;;;29.20;94.20;;;;;;5071670;28;20048;-78
2021/11/19 05:51:46;;;;;;;4.13;2.70;;;29.00;94.30;;;;;;5054814;28;20033;-76
2021/11/19 05:54:16;;;;;;;6.25;2.60;;;29.00;94.50;;;;;;5071583;28;20389;-77
2021/11/19 05:56:45;;;;;;;1.83;1.60;;;28.90;94.10;;;;;;5071904;28;20024;-75
2021/11/19 05:59:13;;;;;;;3.47;2.22;;;29.00;94.60;;;;;;5071506;28;20497;-77
2021/11/19 06:01:41;;;;;;;3.20;2.42;;;29.00;94.70;;;;;;5072934;28;20021;-76
2021/11/19 06:04:08;;;;;;;2.50;2.30;;;29.00;94.70;;;;;;5072649;28;20396;-75
2021/11/19 06:06:37;;;;;;;5.65;2.28;;;28.70;94.20;;;;;;5071398;28;20029;-76
2021/11/19 06:09:06;;;;;;;4.43;1.83;;;28.80;94.50;;;;;;5071332;28;20031;-78
2021/11/19 06:11:42;;;;;;;1.95;1.80;;;28.70;93.50;;;;;;5072622;28;20021;-77
2021/11/19 06:14:29;;;;;;;2.60;2.33;;;28.70;93.80;;;;;;5072599;28;20082;-79
2021/11/19 06:17:02;;;;;;;2.30;2.10;;;28.50;93.90;;;;;;5071450;28;20104;-78
2021/11/19 06:19:35;;;;;;;3.28;2.00;;;28.50;94.20;;;;;;5072563;28;20047;-78
2021/11/19 06:22:11;;;;;;;4.38;2.10;;;28.60;94.20;;;;;;5072622;28;20036;-78
2021/11/19 06:24:46;;;;;;;2.45;2.15;;;28.60;94.00;;;;;;5072557;28;20385;-78
2021/11/19 06:27:22;;;;;;;3.53;2.80;;;28.60;93.70;;;;;;5071322;28;20078;-78
2021/11/19 06:29:57;;;;;;;12.60;4.57;;;28.50;94.60;;;;;;5072533;28;20538;-78
2021/11/19 06:32:26;;;;;;;14.00;6.43;;;28.00;95.60;;;;;;5072474;28;20130;-77
2021/11/19 06:34:54;;;;;;;20.20;7.15;;;27.50;96.60;;;;;;5072354;28;20024;-77
2021/11/19 06:37:22;;;;;;;18.77;6.78;;;27.10;97.00;;;;;;5071067;28;20020;-76
2021/11/19 06:39:49;;;;;;;19.60;7.47;;;26.60;97.90;;;;;;5072414;28;20020;-76
2021/11/19 06:42:17;;;;;;;20.05;7.75;;;26.00;98.70;;;;;;5072416;28;20024;-76
2021/11/19 06:44:46;;;;;;;22.50;7.95;;;25.40;98.90;;;;;;5070951;28;20052;-74
2021/11/19 06:47:14;;;;;;;20.08;7.68;;;24.90;99.90;;;;;;5071001;28;20029;-75
2021/11/19 06:49:43;;;;;;;25.20;8.30;;;24.80;99.90;;;;;;5070870;28;20074;-76
2021/11/19 06:52:11;;;;;;;25.75;7.93;;;24.80;99.90;;;;;;5070937;28;20564;-75
2021/11/19 06:54:39;;;;;;;25.40;8.27;;;24.60;99.90;;;;;;5072332;28;20019;-74
2021/11/19 06:57:07;;;;;;;20.40;7.78;;;24.40;99.90;;;;;;5070976;28;20063;-75
2021/11/19 06:59:35;;;;;;;26.00;9.73;;;24.20;99.90;;;;;;5072209;28;20024;-75
2021/11/19 07:02:04;;;;;;;35.28;9.75;;;24.20;99.90;;;;;;5070818;28;20024;-75
2021/11/19 07:04:31;;;;;;;26.55;10.07;;;23.90;99.90;;;;;;5072030;28;20031;-74
2021/11/19 07:06:59;;;;;;;29.15;9.88;;;23.50;99.90;;;;;;5072388;28;20020;-74
2021/11/19 07:09:27;;;;;;;29.00;9.75;;;23.30;99.90;;;;;;5075712;28;20027;-75
2021/11/19 07:11:55;;;;;;;31.35;10.13;;;23.00;99.90;;;;;;5074294;28;20025;-75
2021/11/19 07:14:22;;;;;;;29.67;10.68;;;22.40;99.90;;;;;;5074417;28;20016;-75
2021/11/19 07:16:50;;;;;;;31.70;10.40;;;22.40;99.90;;;;;;5075557;28;20021;-74
2021/11/19 07:19:17;;;;;;;26.13;10.32;;;22.30;99.90;;;;;;5074009;28;20044;-75
2021/11/19 07:21:44;;;;;;;29.33;9.75;;;22.40;99.90;;;;;;5074106;28;20029;-75
2021/11/19 07:24:12;;;;;;;27.23;9.85;;;22.40;99.90;;;;;;5074109;28;20115;-76
2021/11/19 07:26:40;;;;;;;30.80;9.43;;;22.40;99.90;;;;;;5073905;28;20037;-75
2021/11/19 07:29:08;;;;;;;26.73;9.75;;;22.40;99.90;;;;;;5075315;28;20021;-76
2021/11/19 07:31:36;;;;;;;32.63;10.30;;;22.10;99.90;;;;;;5075209;28;20030;-77
2021/11/19 07:34:03;;;;;;;35.90;12.25;;;21.80;99.90;;;;;;5073893;28;20024;-77
2021/11/19 07:36:30;;;;;;;32.00;10.98;;;21.80;99.90;;;;;;5073856;28;20021;-75
2021/11/19 07:38:59;;;;;;;29.10;10.98;;;21.80;99.90;;;;;;5073785;28;20474;-76
2021/11/19 07:41:27;;;;;;;34.40;12.02;;;21.80;99.90;;;;;;5073696;28;20115;-76
2021/11/19 07:43:57;;;;;;;37.92;11.95;;;21.50;99.90;;;;;;5073734;28;20024;-76
2021/11/19 07:46:26;;;;;;;33.83;11.27;;;21.40;99.90;;;;;;5073940;28;20028;-76
2021/11/19 07:48:54;;;;;;;28.33;10.70;;;21.00;99.90;;;;;;5074962;28;20093;-77
2021/11/19 07:51:31;;;;;;;31.42;11.40;;;21.00;99.90;;;;;;5074961;28;20063;-75
2021/11/19 07:53:59;;;;;;;32.40;12.80;;;20.80;99.90;;;;;;5073618;28;20024;-74
2021/11/19 07:56:30;;;;;;;28.30;12.00;;;20.60;99.90;;;;;;5074897;28;20504;-77
2021/11/19 07:59:05;;;;;;;34.33;13.00;;;20.50;99.90;;;;;;5073464;28;20088;-79
2021/11/19 08:01:34;;;;;;;29.40;13.82;;;20.50;99.90;;;;;;5073642;28;20051;-78
2021/11/19 08:04:02;;;;;;;30.45;12.13;;;20.50;99.90;;;;;;5073264;28;20062;-77
2021/11/19 08:06:30;;;;;;;33.22;14.68;;;20.30;99.90;;;;;;5074530;28;20025;-77
2021/11/19 08:08:58;;;;;;;27.95;13.70;;;20.30;99.90;;;;;;5073304;28;20025;-76
2021/11/19 08:11:26;;;;;;;32.72;12.75;;;20.30;99.90;;;;;;5073233;28;20025;-76
2021/11/19 08:13:54;;;;;;;31.08;12.52;;;20.40;99.90;;;;;;5073214;28;20064;-75
2021/11/19 08:16:22;;;;;;;29.73;12.93;;;20.20;99.90;;;;;;5074356;28;20095;-76
2021/11/19 08:19:00;;;;;;;31.20;13.88;;;20.20;99.90;;;;;;5073583;28;20497;-75
2021/11/19 08:21:29;;;;;;;29.60;13.73;;;20.00;99.90;;;;;;5074378;28;20032;-76
2021/11/19 08:24:00;;;;;;;30.15;14.10;;;19.90;99.90;;;;;;5074266;28;20024;-75
2021/11/19 08:26:38;;;;;;;30.65;14.60;;;19.70;99.90;;;;;;5072957;28;20035;-75
2021/11/19 08:29:13;;;;;;;40.05;16.02;;;19.60;99.90;;;;;;5074329;28;20035;-77
2021/11/19 08:31:41;;;;;;;31.38;14.45;;;19.70;99.90;;;;;;5072820;28;20028;-76
2021/11/19 08:34:09;;;;;;;34.00;14.60;;;19.70;99.90;;;;;;5072769;28;20028;-77
2021/11/19 08:36:37;;;;;;;28.98;14.25;;;19.50;99.90;;;;;;5072769;28;20029;-75
2021/11/19 08:39:07;;;;;;;32.38;14.52;;;19.50;99.90;;;;;;5072710;28;20427;-75
2021/11/19 08:41:35;;;;;;;32.42;14.60;;;19.40;99.90;;;;;;5074004;28;20476;-78
2021/11/19 08:44:03;;;;;;;29.02;15.10;;;19.30;99.90;;;;;;5072601;28;20112;-80
2021/11/19 08:46:34;;;;;;;30.27;14.52;;;19.60;99.90;;;;;;5072452;28;20021;-77
2021/11/19 08:49:05;;;;;;;32.40;15.00;;;19.40;99.90;;;;;;5072571;28;20027;-77
2021/11/19 08:51:33;;;;;;;34.63;15.43;;;19.20;99.90;;;;;;5073809;28;20047;-77
2021/11/19 08:54:04;;;;;;;25.25;13.30;;;19.20;99.90;;;;;;5073854;28;20036;-77
2021/11/19 08:56:34;;;;;;;32.95;14.60;;;19.20;99.90;;;;;;5073723;28;20031;-76
2021/11/19 08:59:04;;;;;;;30.17;14.45;;;19.20;99.90;;;;;;5072317;28;20025;-75
2021/11/19 09:01:31;;;;;;;32.80;15.30;;;19.20;99.90;;;;;;5072159;28;20025;-75
2021/11/19 09:03:59;;;;;;;29.17;15.90;;;19.20;99.90;;;;;;5073490;28;20017;-77
2021/11/19 09:06:27;;;;;;;35.30;16.52;;;19.20;99.90;;;;;;5072139;28;20073;-78
2021/11/19 09:08:55;;;;;;;31.17;15.40;;;19.10;99.90;;;;;;5071982;28;20016;-75
2021/11/19 09:11:24;;;;;;;27.90;15.38;;;19.20;99.90;;;;;;5072144;28;20397;-75
2021/11/19 09:13:57;;;;;;;32.80;15.73;;;19.00;99.90;;;;;;5072033;28;20031;-77
2021/11/19 09:16:34;;;;;;;31.65;15.70;;;18.90;99.90;;;;;;5073416;28;20029;-77
2021/11/19 09:19:21;;;;;;;27.75;16.13;;;19.00;99.90;;;;;;5071746;28;20439;-76
2021/11/19 09:22:14;;;;;;;31.48;16.33;;;19.00;99.90;;;;;;5071914;28;20378;-77
2021/11/19 09:24:41;;;;;;;27.15;15.73;;;19.00;99.90;;;;;;5071911;28;20048;-75
2021/11/19 09:27:13;;;;;;;27.95;15.57;;;19.00;99.90;;;;;;5073287;28;20024;-77
2021/11/19 09:29:55;;;;;;;28.88;15.60;;;19.10;99.90;;;;;;5071852;28;20107;-77
2021/11/19 09:32:24;;;;;;;26.50;14.68;;;19.10;99.90;;;;;;5071855;28;20029;-75
2021/11/19 09:34:55;;;;;;;25.38;15.23;;;19.10;99.90;;;;;;5071614;28;20115;-75
2021/11/19 09:37:26;;;;;;;28.63;15.70;;;19.10;99.90;;;;;;5073029;28;20097;-75
2021/11/19 09:39:55;;;;;;;36.78;16.95;;;19.10;99.90;;;;;;5071707;28;20170;-75
2021/11/19 09:42:59;;;;;;;31.67;15.32;;;19.10;99.90;;;;;;5071524;28;20020;-75
2021/11/19 09:45:39;;;;;;;32.30;16.65;;;19.00;99.90;;;;;;5071678;28;20082;-75
2021/11/19 09:48:46;;;;;;;31.05;17.38;;;19.00;99.90;;;;;;5072971;28;20025;-75
2021/11/19 09:51:46;;;;;;;31.90;16.65;;;18.90;99.90;;;;;;5072871;28;20024;-75
2021/11/19 09:54:50;;;;;;;31.73;18.15;;;19.00;99.90;;;;;;5072962;28;20047;-76
2021/11/19 09:57:38;;;;;;;34.85;16.25;;;18.90;99.90;;;;;;5071575;28;20085;-75
2021/11/19 10:00:13;;;;;;;38.00;17.77;;;18.90;99.90;;;;;;5073026;28;20024;-76
2021/11/19 10:03:04;;;;;;;35.25;17.45;;;18.90;99.90;;;;;;5072726;28;20472;-76
2021/11/19 10:05:56;;;;;;;37.38;18.40;;;18.90;99.90;;;;;;5072864;28;20039;-76
2021/11/19 10:08:47;;;;;;;36.63;18.45;;;19.00;99.90;;;;;;5072810;28;20100;-76
2021/11/19 10:11:31;;;;;;;38.30;17.77;;;19.00;99.90;;;;;;5072723;28;20028;-76
2021/11/19 10:14:32;;;;;;;31.33;17.77;;;18.90;99.90;;;;;;5073106;28;20389;-76
2021/11/19 10:17:04;;;;;;;;;;;18.90;99.90;;;;;;5073131;28;20029;-76
2021/11/19 10:19:34;;;;;;;38.67;18.40;;;18.80;99.90;;;;;;5071193;28;19940;-75
2021/11/19 10:22:28;;;;;;;48.03;20.23;;;18.80;99.90;;;;;;5072529;28;20122;-75
2021/11/19 10:25:32;;;;;;;34.05;18.20;;;18.80;99.90;;;;;;5072667;28;20025;-75
2021/11/19 10:28:05;;;;;;;31.33;18.70;;;18.80;99.90;;;;;;5070971;28;20033;-75
2021/11/19 10:30:44;;;;;;;33.00;18.83;;;18.90;99.90;;;;;;5072422;28;20370;-75
2021/11/19 10:33:35;;;;;;;35.85;19.13;;;18.90;99.90;;;;;;5071142;28;20025;-76
2021/11/19 10:36:21;;;;;;;37.67;18.42;;;18.90;99.90;;;;;;5072274;28;20507;-75
2021/11/19 10:39:15;;;;;;;33.60;18.63;;;19.00;99.90;;;;;;5070752;28;20485;-75
2021/11/19 10:42:12;;;;;;;36.10;19.05;;;19.00;99.90;;;;;;5070818;28;20099;-75
2021/11/19 10:45:00;;;;;;;34.20;18.35;;;19.00;99.90;;;;;;5074213;28;20485;-74
2021/11/19 10:47:59;;;;;;;30.27;18.23;;;19.00;99.90;;;;;;5074543;28;20031;-75
2021/11/19 10:50:54;;;;;;;34.30;17.75;;;19.20;99.90;;;;;;5074591;28;20477;-75
2021/11/19 10:53:36;;;;;;;33.70;18.10;;;19.10;99.90;;;;;;5074680;28;20414;-75
2021/11/19 10:56:14;;;;;;;34.40;18.88;;;19.20;99.90;;;;;;5074610;28;20494;-75
2021/11/19 10:58:41;;;;;;;26.25;17.17;;;19.30;99.90;;;;;;5076678;28;20467;-75
2021/11/19 11:01:38;;;;;;;31.15;18.80;;;19.40;99.90;;;;;;5076660;28;20389;-75
2021/11/19 11:04:11;;;;;;;34.03;18.38;;;19.30;99.90;;;;;;5075364;28;20021;-75
2021/11/19 11:06:47;;;;;;;34.58;17.95;;;19.30;99.90;;;;;;5075299;28;20027;-74
2021/11/19 11:09:33;;;;;;;31.00;18.17;;;19.30;99.90;;;;;;5076542;28;20492;-75
2021/11/19 11:12:15;;;;;;;32.97;17.92;;;19.30;99.90;;;;;;5076356;28;20028;-75
2021/11/19 11:14:45;;;;;;;28.75;17.77;;;19.30;99.90;;;;;;5075038;28;20389;-74
2021/11/19 11:17:28;;;;;;;34.83;18.13;;;19.30;99.90;;;;;;5076387;28;20021;-76
2021/11/19 11:20:01;;;;;;;33.88;18.35;;;19.30;99.90;;;;;;5076320;28;20060;-76
2021/11/19 11:22:38;;;;;;;36.20;18.33;;;19.30;99.90;;;;;;5076209;28;20394;-75
2021/11/19 11:25:21;;;;;;;30.23;18.42;;;19.40;99.90;;;;;;5074981;28;20552;-75
2021/11/19 11:28:13;;;;;;;30.77;17.33;;;19.50;99.90;;;;;;5076006;28;20028;-75
2021/11/19 11:30:54;;;;;;;32.38;17.27;;;19.50;99.90;;;;;;5074614;28;20393;-75
2021/11/19 11:33:26;;;;;;;30.20;17.27;;;19.50;99.90;;;;;;5074686;28;20044;-75
2021/11/19 11:36:10;;;;;;;30.08;17.95;;;19.50;99.90;;;;;;5074597;28;20020;-74
2021/11/19 11:39:15;;;;;;;37.25;18.48;;;19.50;99.90;;;;;;5075628;28;20028;-75
2021/11/19 11:41:58;;;;;;;29.98;18.73;;;19.50;99.90;;;;;;5016781;28;20045;-75
2021/11/19 11:44:40;;;;;;;32.63;18.23;;;19.50;99.90;;;;;;5070949;28;20051;-74
2021/11/19 11:47:13;;;;;;;32.30;18.95;;;19.60;99.90;;;;;;5074586;28;20042;-75
2021/11/19 11:49:45;;;;;;;35.50;19.45;;;19.60;99.90;;;;;;5075904;28;20027;-75
2021/11/19 11:52:20;;;;;;;35.13;18.65;;;19.50;99.90;;;;;;5074647;28;20028;-75
2021/11/19 11:54:59;;;;;;;34.13;18.83;;;19.40;99.90;;;;;;5074778;28;20017;-75
2021/11/19 11:57:30;;;;;;;31.38;18.13;;;19.30;99.90;;;;;;5075566;28;20028;-75
2021/11/19 12:00:10;;;;;;;37.90;18.67;;;19.40;99.90;;;;;;5074440;28;20088;-75
2021/11/19 12:02:54;;;;;;;34.25;19.10;;;19.40;99.90;;;;;;5074354;28;20539;-75
2021/11/19 12:05:50;;;;;;;29.80;18.05;;;19.30;99.90;;;;;;5074446;28;20113;-74
2021/11/19 12:08:44;;;;;;;33.08;18.67;;;19.30;99.90;;;;;;5074282;28;20017;-75
2021/11/19 12:11:23;;;;;;;30.25;18.27;;;19.30;99.90;;;;;;5076117;28;20024;-75
2021/11/19 12:13:56;;;;;;;28.35;17.13;;;19.30;99.90;;;;;;5074485;28;20374;-75
2021/11/19 12:16:36;;;;;;;32.95;17.75;;;19.30;99.90;;;;;;5075486;28;20017;-74
2021/11/19 12:19:29;;;;;;;28.13;17.98;;;19.30;99.90;;;;;;5073866;28;20052;-75
2021/11/19 12:22:21;;;;;;;28.50;18.92;;;19.30;99.90;;;;;;5073482;28;20556;-75
2021/11/19 12:25:05;;;;;;;24.17;18.67;;;19.30;99.90;;;;;;5075305;28;20429;-75
2021/11/19 12:27:56;;;;;;;33.42;18.20;;;19.30;99.90;;;;;;5075243;28;20023;-75
2021/11/19 12:30:32;;;;;;;24.40;18.00;;;19.30;99.90;;;;;;5057581;28;20025;-75
2021/11/19 12:33:08;;;;;;;31.10;18.38;;;19.40;99.90;;;;;;5074912;28;20070;-75
2021/11/19 12:35:36;;;;;;;31.73;18.30;;;19.40;99.90;;;;;;5074923;28;20036;-75
2021/11/19 12:38:11;;;;;;;32.28;18.25;;;19.40;99.90;;;;;;5073383;28;20031;-74
2021/11/19 12:40:53;;;;;;;31.85;18.63;;;19.40;99.90;;;;;;5073743;28;20029;-75
2021/11/19 12:43:42;;;;;;;31.50;17.75;;;19.30;99.90;;;;;;5073500;28;20424;-75
2021/11/19 12:46:47;;;;;;;29.45;19.15;;;19.30;99.90;;;;;;5073724;28;20044;-75
2021/11/19 12:49:50;;;;;;;39.30;20.05;;;19.20;99.90;;;;;;5021248;28;20525;-75
2021/11/19 12:52:20;;;;;;;28.95;18.98;;;19.30;99.90;;;;;;5074600;28;20385;-74
2021/11/19 12:55:01;;;;;;;38.35;20.05;;;19.30;99.90;;;;;;5073440;28;20107;-74
2021/11/19 12:57:37;;;;;;;29.33;19.30;;;19.30;99.90;;;;;;5074500;28;20385;-75
2021/11/19 13:00:11;;;;;;;31.65;18.77;;;19.20;99.90;;;;;;5073151;28;20052;-74
2021/11/19 13:03:10;;;;;;;34.50;19.50;;;19.10;99.90;;;;;;5074476;28;20050;-75
2021/11/19 13:06:20;;;;;;;31.92;19.48;;;19.00;99.90;;;;;;5072699;28;20517;-75
2021/11/19 13:09:13;;;;;;;32.40;20.48;;;18.90;99.90;;;;;;5074015;28;20056;-74
2021/11/19 13:11:58;;;;;;;31.27;19.58;;;18.90;99.90;;;;;;5074181;28;20031;-74
2021/11/19 13:14:30;;;;;;;29.25;20.27;;;18.90;99.90;;;;;;5073037;28;20503;-77